sensor_id;sensor_type;location;lat;lon;timestamp;P1;durP1;ratioP1;P2;durP2;ratioP2
2474;SDS011;1248;48.694;10.160;2023-03-23T00:02:19;7.23;;;3.13;;
2474;SDS011;1248;48.694;10.160;2023-03-23T00:04:50;5.67;;;3.07;;
2474;SDS011;1248;48.694;10.160;2023-03-23T00:07:17;11.17;;;3.37;;
2474;SDS011;1248;48.694;10.160;2023-03-23T00:09:47;5.73;;;3.20;;
2474;SDS011;1248;48.694;10.160;2023-03-23T00:12:19;7.00;;;3.40;;
2474;SDS011;1248;48.694;10.160;2023-03-23T00:14:47;4.43;;;3.00;;
2474;SDS011;1248;48.694;10.160;2023-03-23T00:17:14;4.00;;;3.17;;
2474;SDS011;1248;48.694;10.160;2023-03-23T00:19:41;7.57;;;3.30;;
2474;SDS011;1248;48.694;10.160;2023-03-23T00:22:14;3.50;;;2.53;;
2474;SDS011;1248;48.694;10.160;2023-03-23T00:24:42;7.60;;;3.30;;
2474;SDS011;1248;48.694;10.160;2023-03-23T00:27:10;12.20;;;4.00;;
2474;SDS011;1248;48.694;10.160;2023-03-23T00:29:40;9.00;;;3.10;;
2474;SDS011;1248;48.694;10.160;2023-03-23T00:32:08;11.47;;;3.47;;
2474;SDS011;1248;48.694;10.160;2023-03-23T00:34:38;7.40;;;3.37;;
2474;SDS011;1248;48.694;10.160;2023-03-23T00:37:05;13.93;;;4.10;;
2474;SDS011;1248;48.694;10.160;2023-03-23T00:39:34;8.80;;;3.10;;
2474;SDS011;1248;48.694;10.160;2023-03-23T00:42:03;6.80;;;3.07;;
2474;SDS011;1248;48.694;10.160;2023-03-23T00:44:31;6.13;;;3.90;;
2474;SDS011;1248;48.694;10.160;2023-03-23T00:47:00;12.60;;;3.67;;
2474;SDS011;1248;48.694;10.160;2023-03-23T00:49:28;6.50;;;3.30;;
2474;SDS011;1248;48.694;10.160;2023-03-23T00:51:55;8.37;;;3.57;;
2474;SDS011;1248;48.694;10.160;2023-03-23T00:54:24;5.23;;;3.37;;
2474;SDS011;1248;48.694;10.160;2023-03-23T00:56:52;5.40;;;3.40;;
2474;SDS011;1248;48.694;10.160;2023-03-23T00:59:20;8.27;;;3.73;;
2474;SDS011;1248;48.694;10.160;2023-03-23T01:01:48;8.80;;;3.97;;
2474;SDS011;1248;48.694;10.160;2023-03-23T01:04:15;5.53;;;4.20;;
2474;SDS011;1248;48.694;10.160;2023-03-23T01:06:43;5.27;;;3.90;;
2474;SDS011;1248;48.694;10.160;2023-03-23T01:09:12;5.13;;;3.50;;
2474;SDS011;1248;48.694;10.160;2023-03-23T01:11:42;5.17;;;4.03;;
2474;SDS011;1248;48.694;10.160;2023-03-23T01:14:11;5.33;;;3.57;;
2474;SDS011;1248;48.694;10.160;2023-03-23T01:16:40;7.87;;;4.10;;
2474;SDS011;1248;48.694;10.160;2023-03-23T01:19:07;5.00;;;3.63;;
2474;SDS011;1248;48.694;10.160;2023-03-23T01:21:35;7.57;;;5.67;;
2474;SDS011;1248;48.694;10.160;2023-03-23T01:24:02;4.97;;;4.00;;
2474;SDS011;1248;48.694;10.160;2023-03-23T01:26:29;7.57;;;4.10;;
2474;SDS011;1248;48.694;10.160;2023-03-23T01:28:56;7.33;;;4.70;;
2474;SDS011;1248;48.694;10.160;2023-03-23T01:31:25;4.73;;;4.30;;
2474;SDS011;1248;48.694;10.160;2023-03-23T01:33:52;8.63;;;4.77;;
2474;SDS011;1248;48.694;10.160;2023-03-23T01:36:22;7.07;;;4.37;;
2474;SDS011;1248;48.694;10.160;2023-03-23T01:38:52;5.93;;;3.90;;
2474;SDS011;1248;48.694;10.160;2023-03-23T01:41:20;7.20;;;4.80;;
2474;SDS011;1248;48.694;10.160;2023-03-23T01:43:57;4.60;;;4.00;;
2474;SDS011;1248;48.694;10.160;2023-03-23T01:46:28;8.63;;;3.90;;
2474;SDS011;1248;48.694;10.160;2023-03-23T01:48:57;7.27;;;5.07;;
2474;SDS011;1248;48.694;10.160;2023-03-23T01:51:26;9.93;;;5.87;;
2474;SDS011;1248;48.694;10.160;2023-03-23T01:53:55;9.73;;;5.63;;
2474;SDS011;1248;48.694;10.160;2023-03-23T01:56:24;10.07;;;5.70;;
2474;SDS011;1248;48.694;10.160;2023-03-23T01:58:55;10.70;;;6.20;;
2474;SDS011;1248;48.694;10.160;2023-03-23T02:01:23;14.53;;;7.00;;
2474;SDS011;1248;48.694;10.160;2023-03-23T02:03:52;11.57;;;6.80;;
2474;SDS011;1248;48.694;10.160;2023-03-23T02:06:21;8.20;;;6.23;;
2474;SDS011;1248;48.694;10.160;2023-03-23T02:08:49;11.00;;;7.30;;
2474;SDS011;1248;48.694;10.160;2023-03-23T02:11:17;7.67;;;4.97;;
2474;SDS011;1248;48.694;10.160;2023-03-23T02:13:46;10.40;;;6.07;;
2474;SDS011;1248;48.694;10.160;2023-03-23T02:16:15;7.23;;;5.30;;
2474;SDS011;1248;48.694;10.160;2023-03-23T02:18:49;7.60;;;3.90;;
2474;SDS011;1248;48.694;10.160;2023-03-23T02:21:34;8.13;;;4.30;;
2474;SDS011;1248;48.694;10.160;2023-03-23T02:27:13;4.23;;;3.63;;
2474;SDS011;1248;48.694;10.160;2023-03-23T02:29:48;5.40;;;3.83;;
2474;SDS011;1248;48.694;10.160;2023-03-23T02:32:32;5.70;;;4.10;;
2474;SDS011;1248;48.694;10.160;2023-03-23T02:35:10;8.40;;;4.50;;
2474;SDS011;1248;48.694;10.160;2023-03-23T02:37:39;6.47;;;4.27;;
2474;SDS011;1248;48.694;10.160;2023-03-23T02:40:12;4.27;;;3.57;;
2474;SDS011;1248;48.694;10.160;2023-03-23T02:42:43;5.43;;;4.10;;
2474;SDS011;1248;48.694;10.160;2023-03-23T02:45:11;6.17;;;3.90;;
2474;SDS011;1248;48.694;10.160;2023-03-23T02:47:39;9.43;;;4.37;;
2474;SDS011;1248;48.694;10.160;2023-03-23T02:50:10;8.00;;;4.83;;
2474;SDS011;1248;48.694;10.160;2023-03-23T02:52:41;7.80;;;4.50;;
2474;SDS011;1248;48.694;10.160;2023-03-23T02:55:09;6.33;;;4.10;;
2474;SDS011;1248;48.694;10.160;2023-03-23T02:57:39;11.03;;;4.70;;
2474;SDS011;1248;48.694;10.160;2023-03-23T03:00:07;5.30;;;4.03;;
2474;SDS011;1248;48.694;10.160;2023-03-23T03:02:39;8.20;;;4.30;;
2474;SDS011;1248;48.694;10.160;2023-03-23T03:05:14;8.10;;;4.10;;
2474;SDS011;1248;48.694;10.160;2023-03-23T03:07:49;5.87;;;4.27;;
2474;SDS011;1248;48.694;10.160;2023-03-23T03:10:23;6.90;;;4.33;;
2474;SDS011;1248;48.694;10.160;2023-03-23T03:12:53;4.23;;;3.80;;
2474;SDS011;1248;48.694;10.160;2023-03-23T03:15:25;8.60;;;5.27;;
2474;SDS011;1248;48.694;10.160;2023-03-23T03:17:57;11.33;;;5.10;;
2474;SDS011;1248;48.694;10.160;2023-03-23T03:20:28;9.40;;;5.40;;
2474;SDS011;1248;48.694;10.160;2023-03-23T03:22:56;6.23;;;4.60;;
2474;SDS011;1248;48.694;10.160;2023-03-23T03:25:24;6.07;;;5.00;;
2474;SDS011;1248;48.694;10.160;2023-03-23T03:27:53;4.80;;;4.00;;
2474;SDS011;1248;48.694;10.160;2023-03-23T03:30:22;7.53;;;4.30;;
2474;SDS011;1248;48.694;10.160;2023-03-23T03:32:52;5.23;;;4.10;;
2474;SDS011;1248;48.694;10.160;2023-03-23T03:35:21;7.27;;;4.30;;
2474;SDS011;1248;48.694;10.160;2023-03-23T03:37:50;7.33;;;4.97;;
2474;SDS011;1248;48.694;10.160;2023-03-23T03:40:18;7.33;;;4.80;;
2474;SDS011;1248;48.694;10.160;2023-03-23T03:42:46;7.17;;;4.30;;
2474;SDS011;1248;48.694;10.160;2023-03-23T03:45:15;10.00;;;4.97;;
2474;SDS011;1248;48.694;10.160;2023-03-23T03:47:43;9.93;;;5.77;;
2474;SDS011;1248;48.694;10.160;2023-03-23T03:50:11;14.93;;;5.30;;
2474;SDS011;1248;48.694;10.160;2023-03-23T03:52:38;9.53;;;4.77;;
2474;SDS011;1248;48.694;10.160;2023-03-23T03:55:08;10.50;;;5.40;;
2474;SDS011;1248;48.694;10.160;2023-03-23T03:57:36;6.80;;;4.90;;
2474;SDS011;1248;48.694;10.160;2023-03-23T04:00:05;8.63;;;5.43;;
2474;SDS011;1248;48.694;10.160;2023-03-23T04:02:41;10.80;;;6.20;;
2474;SDS011;1248;48.694;10.160;2023-03-23T04:05:09;6.57;;;5.50;;
2474;SDS011;1248;48.694;10.160;2023-03-23T04:07:37;7.70;;;5.57;;
2474;SDS011;1248;48.694;10.160;2023-03-23T04:10:05;7.27;;;4.73;;
2474;SDS011;1248;48.694;10.160;2023-03-23T04:12:35;5.20;;;4.40;;
2474;SDS011;1248;48.694;10.160;2023-03-23T04:15:02;6.37;;;5.00;;
2474;SDS011;1248;48.694;10.160;2023-03-23T04:17:30;8.60;;;4.60;;
2474;SDS011;1248;48.694;10.160;2023-03-23T04:19:58;7.87;;;5.33;;
2474;SDS011;1248;48.694;10.160;2023-03-23T04:22:25;9.90;;;6.33;;
2474;SDS011;1248;48.694;10.160;2023-03-23T04:24:56;8.73;;;5.87;;
2474;SDS011;1248;48.694;10.160;2023-03-23T04:27:27;9.50;;;5.53;;
2474;SDS011;1248;48.694;10.160;2023-03-23T04:29:54;7.13;;;5.40;;
2474;SDS011;1248;48.694;10.160;2023-03-23T04:32:23;9.40;;;5.50;;
2474;SDS011;1248;48.694;10.160;2023-03-23T04:34:54;8.90;;;5.40;;
2474;SDS011;1248;48.694;10.160;2023-03-23T04:37:23;8.50;;;5.63;;
2474;SDS011;1248;48.694;10.160;2023-03-23T04:39:54;7.27;;;5.80;;
2474;SDS011;1248;48.694;10.160;2023-03-23T04:42:28;7.50;;;5.47;;
2474;SDS011;1248;48.694;10.160;2023-03-23T04:44:59;12.83;;;6.70;;
2474;SDS011;1248;48.694;10.160;2023-03-23T04:47:27;7.43;;;5.97;;
2474;SDS011;1248;48.694;10.160;2023-03-23T04:49:57;8.33;;;6.03;;
2474;SDS011;1248;48.694;10.160;2023-03-23T04:52:25;9.13;;;5.50;;
2474;SDS011;1248;48.694;10.160;2023-03-23T04:54:53;6.90;;;5.73;;
2474;SDS011;1248;48.694;10.160;2023-03-23T04:57:21;7.23;;;5.90;;
2474;SDS011;1248;48.694;10.160;2023-03-23T04:59:49;11.07;;;6.80;;
2474;SDS011;1248;48.694;10.160;2023-03-23T05:02:16;7.73;;;5.67;;
2474;SDS011;1248;48.694;10.160;2023-03-23T05:04:44;13.57;;;6.50;;
2474;SDS011;1248;48.694;10.160;2023-03-23T05:07:11;12.67;;;5.73;;
2474;SDS011;1248;48.694;10.160;2023-03-23T05:09:38;9.47;;;5.87;;
2474;SDS011;1248;48.694;10.160;2023-03-23T05:12:06;9.77;;;7.33;;
2474;SDS011;1248;48.694;10.160;2023-03-23T05:14:34;8.30;;;6.77;;
2474;SDS011;1248;48.694;10.160;2023-03-23T05:17:03;7.33;;;6.63;;
2474;SDS011;1248;48.694;10.160;2023-03-23T05:19:30;10.30;;;6.80;;
2474;SDS011;1248;48.694;10.160;2023-03-23T05:21:59;14.30;;;7.27;;
2474;SDS011;1248;48.694;10.160;2023-03-23T05:24:28;10.73;;;6.40;;
2474;SDS011;1248;48.694;10.160;2023-03-23T05:26:58;15.67;;;6.90;;
2474;SDS011;1248;48.694;10.160;2023-03-23T05:29:25;7.03;;;5.60;;
2474;SDS011;1248;48.694;10.160;2023-03-23T05:31:55;9.47;;;5.37;;
2474;SDS011;1248;48.694;10.160;2023-03-23T05:34:26;6.03;;;4.90;;
2474;SDS011;1248;48.694;10.160;2023-03-23T05:36:54;7.60;;;6.07;;
2474;SDS011;1248;48.694;10.160;2023-03-23T05:39:23;8.73;;;5.57;;
2474;SDS011;1248;48.694;10.160;2023-03-23T05:41:50;10.23;;;6.47;;
2474;SDS011;1248;48.694;10.160;2023-03-23T05:44:17;17.13;;;7.80;;
2474;SDS011;1248;48.694;10.160;2023-03-23T05:46:44;11.40;;;6.57;;
2474;SDS011;1248;48.694;10.160;2023-03-23T05:49:11;16.00;;;7.60;;
2474;SDS011;1248;48.694;10.160;2023-03-23T05:51:40;11.77;;;6.70;;
2474;SDS011;1248;48.694;10.160;2023-03-23T05:54:07;8.80;;;4.97;;
2474;SDS011;1248;48.694;10.160;2023-03-23T05:56:36;10.83;;;5.70;;
2474;SDS011;1248;48.694;10.160;2023-03-23T05:59:03;8.43;;;5.90;;
2474;SDS011;1248;48.694;10.160;2023-03-23T06:01:30;11.87;;;6.50;;
2474;SDS011;1248;48.694;10.160;2023-03-23T06:03:58;7.30;;;5.90;;
2474;SDS011;1248;48.694;10.160;2023-03-23T06:06:25;8.63;;;6.00;;
2474;SDS011;1248;48.694;10.160;2023-03-23T06:08:55;8.43;;;5.70;;
2474;SDS011;1248;48.694;10.160;2023-03-23T06:11:22;8.50;;;6.30;;
2474;SDS011;1248;48.694;10.160;2023-03-23T06:13:49;8.53;;;5.87;;
2474;SDS011;1248;48.694;10.160;2023-03-23T06:16:16;11.90;;;5.43;;
2474;SDS011;1248;48.694;10.160;2023-03-23T06:18:44;7.10;;;5.50;;
2474;SDS011;1248;48.694;10.160;2023-03-23T06:21:12;11.00;;;6.00;;
2474;SDS011;1248;48.694;10.160;2023-03-23T06:23:39;10.63;;;5.50;;
2474;SDS011;1248;48.694;10.160;2023-03-23T06:26:07;8.93;;;5.67;;
2474;SDS011;1248;48.694;10.160;2023-03-23T06:28:35;10.67;;;6.03;;
2474;SDS011;1248;48.694;10.160;2023-03-23T06:31:03;8.40;;;5.50;;
2474;SDS011;1248;48.694;10.160;2023-03-23T06:33:32;6.23;;;5.23;;
2474;SDS011;1248;48.694;10.160;2023-03-23T06:36:00;5.53;;;5.00;;
2474;SDS011;1248;48.694;10.160;2023-03-23T06:38:27;10.77;;;6.20;;
2474;SDS011;1248;48.694;10.160;2023-03-23T06:40:54;17.23;;;6.03;;
2474;SDS011;1248;48.694;10.160;2023-03-23T06:43:23;11.80;;;6.60;;
2474;SDS011;1248;48.694;10.160;2023-03-23T06:45:51;9.00;;;6.40;;
2474;SDS011;1248;48.694;10.160;2023-03-23T06:48:18;8.03;;;5.47;;
2474;SDS011;1248;48.694;10.160;2023-03-23T06:50:45;5.97;;;4.90;;
2474;SDS011;1248;48.694;10.160;2023-03-23T06:53:13;8.63;;;6.00;;
2474;SDS011;1248;48.694;10.160;2023-03-23T06:55:41;6.90;;;4.90;;
2474;SDS011;1248;48.694;10.160;2023-03-23T06:58:09;8.43;;;5.60;;
2474;SDS011;1248;48.694;10.160;2023-03-23T07:00:38;9.67;;;5.37;;
2474;SDS011;1248;48.694;10.160;2023-03-23T07:03:05;8.40;;;5.47;;
2474;SDS011;1248;48.694;10.160;2023-03-23T07:05:33;8.10;;;5.40;;
2474;SDS011;1248;48.694;10.160;2023-03-23T07:08:01;6.50;;;4.93;;
2474;SDS011;1248;48.694;10.160;2023-03-23T07:10:28;7.30;;;5.60;;
2474;SDS011;1248;48.694;10.160;2023-03-23T07:12:55;8.60;;;5.50;;
2474;SDS011;1248;48.694;10.160;2023-03-23T07:15:22;5.73;;;4.87;;
2474;SDS011;1248;48.694;10.160;2023-03-23T07:17:51;10.70;;;5.10;;
2474;SDS011;1248;48.694;10.160;2023-03-23T07:20:19;7.50;;;5.17;;
2474;SDS011;1248;48.694;10.160;2023-03-23T07:22:47;7.00;;;4.33;;
2474;SDS011;1248;48.694;10.160;2023-03-23T07:25:15;5.57;;;4.50;;
2474;SDS011;1248;48.694;10.160;2023-03-23T07:27:43;6.40;;;4.43;;
2474;SDS011;1248;48.694;10.160;2023-03-23T07:30:11;6.30;;;4.40;;
2474;SDS011;1248;48.694;10.160;2023-03-23T07:32:40;6.20;;;5.00;;
2474;SDS011;1248;48.694;10.160;2023-03-23T07:35:09;5.40;;;3.90;;
2474;SDS011;1248;48.694;10.160;2023-03-23T07:37:37;5.57;;;4.10;;
2474;SDS011;1248;48.694;10.160;2023-03-23T07:40:04;8.03;;;3.40;;
2474;SDS011;1248;48.694;10.160;2023-03-23T07:42:40;7.33;;;4.43;;
2474;SDS011;1248;48.694;10.160;2023-03-23T07:45:09;5.07;;;3.83;;
2474;SDS011;1248;48.694;10.160;2023-03-23T07:47:37;6.20;;;3.80;;
2474;SDS011;1248;48.694;10.160;2023-03-23T07:50:04;7.47;;;3.30;;
2474;SDS011;1248;48.694;10.160;2023-03-23T07:52:33;3.80;;;3.47;;
2474;SDS011;1248;48.694;10.160;2023-03-23T07:55:01;4.63;;;3.63;;
2474;SDS011;1248;48.694;10.160;2023-03-23T07:57:29;5.43;;;4.10;;
2474;SDS011;1248;48.694;10.160;2023-03-23T07:59:58;6.50;;;3.20;;
2474;SDS011;1248;48.694;10.160;2023-03-23T08:02:25;5.97;;;3.63;;
2474;SDS011;1248;48.694;10.160;2023-03-23T08:04:53;4.70;;;3.50;;
2474;SDS011;1248;48.694;10.160;2023-03-23T08:07:22;4.97;;;4.03;;
2474;SDS011;1248;48.694;10.160;2023-03-23T08:09:50;28.13;;;4.47;;
2474;SDS011;1248;48.694;10.160;2023-03-23T08:12:17;9.53;;;3.73;;
2474;SDS011;1248;48.694;10.160;2023-03-23T08:14:45;7.80;;;3.10;;
2474;SDS011;1248;48.694;10.160;2023-03-23T08:17:13;7.63;;;3.53;;
2474;SDS011;1248;48.694;10.160;2023-03-23T08:19:40;6.33;;;4.37;;
2474;SDS011;1248;48.694;10.160;2023-03-23T08:22:08;6.10;;;3.27;;
2474;SDS011;1248;48.694;10.160;2023-03-23T08:24:35;4.97;;;3.67;;
2474;SDS011;1248;48.694;10.160;2023-03-23T08:27:04;5.70;;;2.97;;
2474;SDS011;1248;48.694;10.160;2023-03-23T08:29:32;8.57;;;3.60;;
2474;SDS011;1248;48.694;10.160;2023-03-23T08:31:59;4.13;;;3.67;;
2474;SDS011;1248;48.694;10.160;2023-03-23T08:34:27;7.70;;;3.37;;
2474;SDS011;1248;48.694;10.160;2023-03-23T08:36:54;5.23;;;4.00;;
2474;SDS011;1248;48.694;10.160;2023-03-23T08:39:22;3.40;;;3.10;;
2474;SDS011;1248;48.694;10.160;2023-03-23T08:41:50;4.90;;;3.47;;
2474;SDS011;1248;48.694;10.160;2023-03-23T08:44:19;5.10;;;3.73;;
2474;SDS011;1248;48.694;10.160;2023-03-23T08:46:46;4.20;;;3.47;;
2474;SDS011;1248;48.694;10.160;2023-03-23T08:49:13;4.70;;;3.40;;
2474;SDS011;1248;48.694;10.160;2023-03-23T08:51:41;7.73;;;3.50;;
2474;SDS011;1248;48.694;10.160;2023-03-23T08:54:09;5.40;;;3.60;;
2474;SDS011;1248;48.694;10.160;2023-03-23T08:56:36;5.63;;;3.33;;
2474;SDS011;1248;48.694;10.160;2023-03-23T08:59:03;4.33;;;3.50;;
2474;SDS011;1248;48.694;10.160;2023-03-23T09:01:31;3.83;;;3.33;;
2474;SDS011;1248;48.694;10.160;2023-03-23T09:03:58;5.10;;;3.70;;
2474;SDS011;1248;48.694;10.160;2023-03-23T09:06:25;6.70;;;3.17;;
2474;SDS011;1248;48.694;10.160;2023-03-23T09:08:53;4.53;;;3.40;;
2474;SDS011;1248;48.694;10.160;2023-03-23T09:11:21;4.83;;;3.40;;
2474;SDS011;1248;48.694;10.160;2023-03-23T09:13:48;4.33;;;3.27;;
2474;SDS011;1248;48.694;10.160;2023-03-23T09:16:15;4.50;;;3.57;;
2474;SDS011;1248;48.694;10.160;2023-03-23T09:18:44;5.40;;;3.30;;
2474;SDS011;1248;48.694;10.160;2023-03-23T09:21:11;4.13;;;3.00;;
2474;SDS011;1248;48.694;10.160;2023-03-23T09:23:39;10.97;;;2.70;;
2474;SDS011;1248;48.694;10.160;2023-03-23T09:26:09;3.63;;;2.73;;
2474;SDS011;1248;48.694;10.160;2023-03-23T09:28:37;4.23;;;2.43;;
2474;SDS011;1248;48.694;10.160;2023-03-23T09:31:04;3.53;;;2.67;;
2474;SDS011;1248;48.694;10.160;2023-03-23T09:33:31;5.37;;;2.30;;
2474;SDS011;1248;48.694;10.160;2023-03-23T09:36:00;3.73;;;2.30;;
2474;SDS011;1248;48.694;10.160;2023-03-23T09:38:30;5.20;;;2.03;;
2474;SDS011;1248;48.694;10.160;2023-03-23T09:41:01;4.37;;;2.70;;
2474;SDS011;1248;48.694;10.160;2023-03-23T09:46:26;4.80;;;2.30;;
2474;SDS011;1248;48.694;10.160;2023-03-23T09:48:58;2.80;;;1.70;;
2474;SDS011;1248;48.694;10.160;2023-03-23T09:51:31;2.73;;;1.80;;
2474;SDS011;1248;48.694;10.160;2023-03-23T09:54:05;6.00;;;1.70;;
2474;SDS011;1248;48.694;10.160;2023-03-23T09:56:37;3.27;;;2.10;;
2474;SDS011;1248;48.694;10.160;2023-03-23T09:59:07;2.87;;;1.47;;
2474;SDS011;1248;48.694;10.160;2023-03-23T10:01:40;4.03;;;2.10;;
2474;SDS011;1248;48.694;10.160;2023-03-23T10:04:11;3.60;;;1.80;;
2474;SDS011;1248;48.694;10.160;2023-03-23T10:06:42;2.00;;;1.73;;
2474;SDS011;1248;48.694;10.160;2023-03-23T10:09:11;3.37;;;1.57;;
2474;SDS011;1248;48.694;10.160;2023-03-23T10:11:43;4.03;;;1.43;;
2474;SDS011;1248;48.694;10.160;2023-03-23T10:14:24;3.40;;;1.93;;
2474;SDS011;1248;48.694;10.160;2023-03-23T10:17:03;2.27;;;1.70;;
2474;SDS011;1248;48.694;10.160;2023-03-23T10:19:37;8.30;;;1.80;;
2474;SDS011;1248;48.694;10.160;2023-03-23T10:22:10;2.33;;;1.63;;
2474;SDS011;1248;48.694;10.160;2023-03-23T10:24:40;2.40;;;1.73;;
2474;SDS011;1248;48.694;10.160;2023-03-23T10:27:13;1.73;;;1.63;;
2474;SDS011;1248;48.694;10.160;2023-03-23T10:29:47;3.50;;;1.97;;
2474;SDS011;1248;48.694;10.160;2023-03-23T10:32:20;2.57;;;1.73;;
2474;SDS011;1248;48.694;10.160;2023-03-23T10:34:49;2.53;;;1.67;;
2474;SDS011;1248;48.694;10.160;2023-03-23T10:37:22;2.90;;;1.97;;
2474;SDS011;1248;48.694;10.160;2023-03-23T10:39:52;2.00;;;1.80;;
2474;SDS011;1248;48.694;10.160;2023-03-23T10:42:30;1.77;;;1.50;;
2474;SDS011;1248;48.694;10.160;2023-03-23T10:44:59;2.10;;;1.80;;
2474;SDS011;1248;48.694;10.160;2023-03-23T10:47:27;6.53;;;2.40;;
2474;SDS011;1248;48.694;10.160;2023-03-23T10:49:54;3.07;;;2.10;;
2474;SDS011;1248;48.694;10.160;2023-03-23T10:52:28;3.20;;;1.90;;
2474;SDS011;1248;48.694;10.160;2023-03-23T10:54:58;1.83;;;1.63;;
2474;SDS011;1248;48.694;10.160;2023-03-23T11:00:51;2.40;;;2.00;;
2474;SDS011;1248;48.694;10.160;2023-03-23T11:03:23;3.60;;;2.20;;
2474;SDS011;1248;48.694;10.160;2023-03-23T11:05:55;2.03;;;1.70;;
2474;SDS011;1248;48.694;10.160;2023-03-23T11:08:25;2.03;;;1.83;;
2474;SDS011;1248;48.694;10.160;2023-03-23T11:10:55;2.40;;;1.57;;
2474;SDS011;1248;48.694;10.160;2023-03-23T11:13:30;4.50;;;1.63;;
2474;SDS011;1248;48.694;10.160;2023-03-23T11:15:58;3.10;;;1.70;;
2474;SDS011;1248;48.694;10.160;2023-03-23T11:18:26;3.57;;;1.67;;
2474;SDS011;1248;48.694;10.160;2023-03-23T11:21:04;1.77;;;1.30;;
2474;SDS011;1248;48.694;10.160;2023-03-23T11:23:34;2.30;;;1.47;;
2474;SDS011;1248;48.694;10.160;2023-03-23T11:26:08;1.80;;;1.40;;
2474;SDS011;1248;48.694;10.160;2023-03-23T11:28:42;2.20;;;1.43;;
2474;SDS011;1248;48.694;10.160;2023-03-23T11:31:10;1.80;;;1.60;;
2474;SDS011;1248;48.694;10.160;2023-03-23T11:33:38;2.40;;;1.80;;
2474;SDS011;1248;48.694;10.160;2023-03-23T11:36:13;3.30;;;2.33;;
2474;SDS011;1248;48.694;10.160;2023-03-23T11:38:42;2.40;;;1.77;;
2474;SDS011;1248;48.694;10.160;2023-03-23T11:41:10;3.20;;;1.80;;
2474;SDS011;1248;48.694;10.160;2023-03-23T11:43:43;2.63;;;1.70;;
2474;SDS011;1248;48.694;10.160;2023-03-23T11:46:14;3.10;;;1.80;;
2474;SDS011;1248;48.694;10.160;2023-03-23T11:48:49;2.13;;;1.77;;
2474;SDS011;1248;48.694;10.160;2023-03-23T11:51:19;3.00;;;1.70;;
2474;SDS011;1248;48.694;10.160;2023-03-23T11:53:53;3.57;;;2.13;;
2474;SDS011;1248;48.694;10.160;2023-03-23T11:56:24;3.70;;;1.97;;
2474;SDS011;1248;48.694;10.160;2023-03-23T11:58:53;1.97;;;1.80;;
2474;SDS011;1248;48.694;10.160;2023-03-23T12:01:36;3.97;;;1.90;;
2474;SDS011;1248;48.694;10.160;2023-03-23T12:04:22;3.17;;;1.87;;
2474;SDS011;1248;48.694;10.160;2023-03-23T12:06:58;2.97;;;2.13;;
2474;SDS011;1248;48.694;10.160;2023-03-23T12:09:38;3.10;;;1.90;;
2474;SDS011;1248;48.694;10.160;2023-03-23T12:12:12;1.93;;;1.57;;
2474;SDS011;1248;48.694;10.160;2023-03-23T12:14:47;3.43;;;2.27;;
2474;SDS011;1248;48.694;10.160;2023-03-23T12:17:20;3.10;;;2.10;;
2474;SDS011;1248;48.694;10.160;2023-03-23T12:19:56;3.00;;;1.87;;
2474;SDS011;1248;48.694;10.160;2023-03-23T12:22:41;2.63;;;1.80;;
2474;SDS011;1248;48.694;10.160;2023-03-23T12:25:30;5.57;;;2.60;;
2474;SDS011;1248;48.694;10.160;2023-03-23T12:28:11;6.33;;;2.00;;
2474;SDS011;1248;48.694;10.160;2023-03-23T12:30:44;3.50;;;2.33;;
2474;SDS011;1248;48.694;10.160;2023-03-23T12:33:21;3.00;;;1.93;;
2474;SDS011;1248;48.694;10.160;2023-03-23T12:35:57;3.10;;;2.20;;
2474;SDS011;1248;48.694;10.160;2023-03-23T12:38:43;3.70;;;2.03;;
2474;SDS011;1248;48.694;10.160;2023-03-23T12:41:17;4.07;;;2.40;;
2474;SDS011;1248;48.694;10.160;2023-03-23T12:43:48;2.00;;;1.80;;
2474;SDS011;1248;48.694;10.160;2023-03-23T12:46:34;2.20;;;2.00;;
2474;SDS011;1248;48.694;10.160;2023-03-23T12:49:07;3.83;;;1.93;;
2474;SDS011;1248;48.694;10.160;2023-03-23T12:51:40;2.43;;;1.90;;
2474;SDS011;1248;48.694;10.160;2023-03-23T12:54:12;2.97;;;1.87;;
2474;SDS011;1248;48.694;10.160;2023-03-23T12:56:43;3.07;;;2.07;;
2474;SDS011;1248;48.694;10.160;2023-03-23T12:59:23;2.40;;;1.67;;
2474;SDS011;1248;48.694;10.160;2023-03-23T13:01:54;2.67;;;1.63;;
2474;SDS011;1248;48.694;10.160;2023-03-23T13:04:25;2.30;;;1.67;;
2474;SDS011;1248;48.694;10.160;2023-03-23T13:06:53;2.30;;;1.70;;
2474;SDS011;1248;48.694;10.160;2023-03-23T13:09:22;3.00;;;1.70;;
2474;SDS011;1248;48.694;10.160;2023-03-23T13:11:54;2.10;;;1.73;;
2474;SDS011;1248;48.694;10.160;2023-03-23T13:14:32;4.10;;;1.80;;
2474;SDS011;1248;48.694;10.160;2023-03-23T13:17:06;3.10;;;1.67;;
2474;SDS011;1248;48.694;10.160;2023-03-23T13:19:49;5.00;;;1.97;;
2474;SDS011;1248;48.694;10.160;2023-03-23T13:22:24;2.23;;;2.00;;
2474;SDS011;1248;48.694;10.160;2023-03-23T13:24:56;4.10;;;2.10;;
2474;SDS011;1248;48.694;10.160;2023-03-23T13:27:26;1.80;;;1.67;;
2474;SDS011;1248;48.694;10.160;2023-03-23T13:29:53;3.90;;;1.67;;
2474;SDS011;1248;48.694;10.160;2023-03-23T13:32:22;2.30;;;2.10;;
2474;SDS011;1248;48.694;10.160;2023-03-23T13:34:57;3.40;;;1.97;;
2474;SDS011;1248;48.694;10.160;2023-03-23T13:37:27;3.20;;;2.03;;
2474;SDS011;1248;48.694;10.160;2023-03-23T13:39:56;5.73;;;2.40;;
2474;SDS011;1248;48.694;10.160;2023-03-23T13:42:26;2.40;;;1.57;;
2474;SDS011;1248;48.694;10.160;2023-03-23T13:44:57;2.10;;;1.57;;
2474;SDS011;1248;48.694;10.160;2023-03-23T13:47:35;3.07;;;2.13;;
2474;SDS011;1248;48.694;10.160;2023-03-23T13:50:10;1.73;;;1.50;;
2474;SDS011;1248;48.694;10.160;2023-03-23T13:52:39;3.63;;;1.80;;
2474;SDS011;1248;48.694;10.160;2023-03-23T13:55:29;4.30;;;2.30;;
2474;SDS011;1248;48.694;10.160;2023-03-23T13:58:09;6.07;;;2.20;;
2474;SDS011;1248;48.694;10.160;2023-03-23T14:00:47;3.67;;;2.10;;
2474;SDS011;1248;48.694;10.160;2023-03-23T14:03:18;2.43;;;1.53;;
2474;SDS011;1248;48.694;10.160;2023-03-23T14:05:51;4.40;;;1.87;;
2474;SDS011;1248;48.694;10.160;2023-03-23T14:08:36;3.40;;;2.00;;
2474;SDS011;1248;48.694;10.160;2023-03-23T14:11:09;4.57;;;1.90;;
2474;SDS011;1248;48.694;10.160;2023-03-23T14:13:41;3.23;;;2.80;;
2474;SDS011;1248;48.694;10.160;2023-03-23T14:16:15;3.70;;;2.67;;
2474;SDS011;1248;48.694;10.160;2023-03-23T14:18:47;2.57;;;2.37;;
2474;SDS011;1248;48.694;10.160;2023-03-23T14:21:21;3.30;;;2.10;;
2474;SDS011;1248;48.694;10.160;2023-03-23T14:23:51;2.97;;;1.90;;
2474;SDS011;1248;48.694;10.160;2023-03-23T14:26:20;2.27;;;2.07;;
2474;SDS011;1248;48.694;10.160;2023-03-23T14:28:51;3.50;;;2.20;;
2474;SDS011;1248;48.694;10.160;2023-03-23T14:31:19;4.33;;;2.57;;
2474;SDS011;1248;48.694;10.160;2023-03-23T14:33:47;2.50;;;1.90;;
2474;SDS011;1248;48.694;10.160;2023-03-23T14:36:19;11.00;;;2.10;;
2474;SDS011;1248;48.694;10.160;2023-03-23T14:38:48;3.27;;;2.07;;
2474;SDS011;1248;48.694;10.160;2023-03-23T14:41:15;2.10;;;1.73;;
2474;SDS011;1248;48.694;10.160;2023-03-23T14:43:42;3.70;;;2.13;;
2474;SDS011;1248;48.694;10.160;2023-03-23T14:46:11;4.10;;;2.30;;
2474;SDS011;1248;48.694;10.160;2023-03-23T14:48:39;2.50;;;1.87;;
2474;SDS011;1248;48.694;10.160;2023-03-23T14:51:06;4.13;;;2.20;;
2474;SDS011;1248;48.694;10.160;2023-03-23T14:53:35;3.17;;;2.57;;
2474;SDS011;1248;48.694;10.160;2023-03-23T14:56:04;4.20;;;2.07;;
2474;SDS011;1248;48.694;10.160;2023-03-23T14:58:37;3.20;;;1.80;;
2474;SDS011;1248;48.694;10.160;2023-03-23T15:01:06;3.03;;;1.80;;
2474;SDS011;1248;48.694;10.160;2023-03-23T15:03:36;2.10;;;1.83;;
2474;SDS011;1248;48.694;10.160;2023-03-23T15:06:05;2.70;;;1.77;;
2474;SDS011;1248;48.694;10.160;2023-03-23T15:08:35;2.60;;;1.80;;
2474;SDS011;1248;48.694;10.160;2023-03-23T15:11:05;2.33;;;2.13;;
2474;SDS011;1248;48.694;10.160;2023-03-23T15:13:34;3.20;;;1.90;;
2474;SDS011;1248;48.694;10.160;2023-03-23T15:16:03;3.77;;;2.43;;
2474;SDS011;1248;48.694;10.160;2023-03-23T15:18:32;1.87;;;1.60;;
2474;SDS011;1248;48.694;10.160;2023-03-23T15:21:10;7.13;;;1.77;;
2474;SDS011;1248;48.694;10.160;2023-03-23T15:23:42;2.83;;;1.70;;
2474;SDS011;1248;48.694;10.160;2023-03-23T15:26:20;3.23;;;1.83;;
2474;SDS011;1248;48.694;10.160;2023-03-23T15:28:58;2.90;;;2.40;;